createdAt,value
2019-04-23T00:01:56.991Z,45.85
2019-04-23T00:04:26.583Z,40.67
2019-04-23T00:07:08.129Z,42.83
2019-04-23T00:09:42.347Z,49.55
2019-04-23T00:12:34.369Z,46.35
2019-04-23T00:17:32.050Z,41.77
2019-04-23T00:20:03.814Z,42.05
2019-04-23T00:22:51.776Z,38.85
2019-04-23T00:25:43.638Z,46.73
2019-04-23T00:28:07.922Z,46.35
2019-04-23T00:33:07.462Z,42.35
2019-04-23T00:35:34.140Z,42.17
2019-04-23T00:38:05.262Z,38.88
2019-04-23T00:45:44.595Z,41.15
2019-04-23T00:48:19.633Z,44.18
2019-04-23T00:53:42.046Z,39.78
2019-04-23T00:58:33.699Z,39.60
2019-04-23T01:01:31.781Z,38.90
2019-04-23T01:03:58.043Z,43.08
2019-04-23T01:06:29.112Z,39.88
2019-04-23T01:09:02.139Z,42.40
2019-04-23T01:11:52.236Z,42.53
2019-04-23T01:14:23.005Z,46.53
2019-04-23T01:16:48.349Z,46.95
2019-04-23T01:19:31.662Z,40.28
2019-04-23T01:21:41.214Z,41.35
2019-04-23T01:24:17.738Z,39.73
2019-04-23T01:27:39.057Z,44.13
2019-04-23T01:29:58.509Z,42.98
2019-04-23T01:32:35.049Z,38.90
2019-04-23T01:35:20.288Z,45.17
2019-04-23T01:40:11.827Z,40.12
2019-04-23T01:45:20.407Z,44.23
2019-04-23T01:50:20.178Z,43.02
2019-04-23T01:52:51.962Z,40.10
2019-04-23T01:55:24.461Z,41.40
2019-04-23T01:58:09.385Z,46.65
2019-04-23T02:00:39.160Z,41.63
2019-04-23T02:03:09.440Z,38.92
2019-04-23T02:10:45.761Z,41.28
2019-04-23T02:13:14.257Z,38.28
2019-04-23T02:18:11.490Z,42.05
2019-04-23T02:20:47.280Z,44.48
2019-04-23T02:25:50.896Z,43.90
2019-04-23T02:28:42.875Z,45.40
2019-04-23T02:31:12.138Z,42.27
2019-04-23T02:38:46.278Z,47.75
2019-04-23T02:41:27.693Z,46.88
2019-04-23T02:43:35.546Z,45.92
2019-04-23T02:46:09.068Z,43.25
2019-04-23T02:48:54.685Z,44.05
2019-04-23T02:59:05.644Z,45.03
2019-04-23T03:04:00.041Z,45.45
2019-04-23T03:06:43.411Z,45.98
2019-04-23T03:09:21.031Z,43.15
2019-04-23T03:11:41.650Z,42.53
2019-04-23T03:19:58.560Z,48.30
2019-04-23T03:28:11.906Z,49.95
2019-04-23T03:32:01.788Z,41.23
2019-04-23T03:41:29.998Z,43.98
2019-04-23T03:44:16.614Z,44.48
2019-04-23T03:46:46.753Z,44.35
2019-04-23T03:48:57.476Z,45.17
2019-04-23T03:54:26.197Z,45.30
2019-04-23T04:02:45.886Z,53.52
2019-04-23T04:05:01.283Z,51.05
2019-04-23T04:10:35.996Z,50.40
2019-04-23T04:13:20.170Z,51.15
2019-04-23T04:15:57.256Z,56.48
2019-04-23T04:23:27.643Z,49.58
2019-04-23T04:28:51.450Z,43.85
2019-04-23T04:31:21.618Z,41.88
2019-04-23T04:34:24.777Z,42.13
2019-04-23T04:39:05.319Z,50.67
2019-04-23T04:41:52.118Z,44.42
2019-04-23T04:44:26.342Z,47.60
2019-04-23T04:46:47.662Z,46.90
2019-04-23T04:49:23.690Z,46.40
2019-04-23T04:54:22.987Z,66.92
2019-04-23T04:56:49.827Z,48.17
2019-04-23T04:59:17.667Z,46.77
2019-04-23T05:07:04.095Z,50.20
2019-04-23T05:09:31.922Z,41.50
2019-04-23T05:12:01.150Z,36.90
2019-04-23T05:14:26.933Z,41.50
2019-04-23T05:16:50.685Z,57.65
2019-04-23T05:19:31.594Z,40.55
2019-04-23T05:22:05.330Z,41.00
2019-04-23T05:24:31.845Z,38.33
2019-04-23T05:26:46.533Z,40.00
2019-04-23T05:29:20.361Z,39.30
2019-04-23T05:31:53.458Z,37.40
2019-04-23T05:34:23.870Z,36.40
2019-04-23T05:36:58.374Z,36.50
2019-04-23T05:39:29.119Z,39.42
2019-04-23T05:41:55.748Z,36.42
2019-04-23T05:44:29.942Z,35.10
2019-04-23T05:47:01.262Z,34.05
2019-04-23T05:49:31.777Z,41.18
2019-04-23T05:52:04.338Z,41.68
2019-04-23T05:57:01.769Z,42.62
2019-04-23T05:59:36.069Z,40.03
2019-04-23T06:02:07.572Z,43.48
2019-04-23T06:04:35.885Z,44.48
2019-04-23T06:09:41.769Z,47.58
2019-04-23T06:19:48.404Z,43.13
2019-04-23T06:24:46.738Z,43.45
2019-04-23T06:27:22.153Z,53.90
2019-04-23T06:29:43.195Z,41.88
2019-04-23T06:32:12.986Z,47.53
2019-04-23T06:34:50.166Z,60.40
2019-04-23T06:37:16.039Z,59.77
2019-04-23T06:39:51.942Z,61.45
2019-04-23T06:42:20.719Z,73.80
2019-04-23T06:47:21.862Z,59.67
2019-04-23T06:52:21.290Z,61.18
2019-04-23T06:57:48.084Z,60.35
2019-04-23T07:00:02.309Z,46.63
2019-04-23T07:02:34.280Z,62.55
2019-04-23T07:05:06.524Z,58.20
2019-04-23T07:07:52.836Z,39.63
2019-04-23T07:10:07.320Z,51.85
2019-04-23T07:15:29.074Z,50.52
2019-04-23T07:17:42.443Z,39.30
2019-04-23T07:20:14.903Z,34.80
2019-04-23T07:25:12.849Z,38.08
2019-04-23T07:28:06.934Z,44.00
2019-04-23T07:32:49.874Z,35.68
2019-04-23T07:35:15.881Z,41.68
2019-04-23T07:37:57.066Z,35.17
2019-04-23T07:40:37.167Z,41.00
2019-04-23T07:43:15.570Z,29.95
2019-04-23T07:46:16.752Z,35.92
2019-04-23T07:48:43.673Z,27.40
2019-04-23T07:51:14.779Z,34.08
2019-04-23T07:54:01.302Z,32.83
2019-04-23T07:56:27.525Z,35.70
2019-04-23T07:59:15.954Z,29.02
2019-04-23T08:01:47.115Z,36.50
2019-04-23T08:04:08.840Z,35.23
2019-04-23T08:06:50.208Z,24.52
2019-04-23T08:11:56.170Z,34.15
2019-04-23T08:15:08.840Z,32.80
2019-04-23T08:17:23.877Z,29.87
2019-04-23T08:22:28.680Z,29.02
2019-04-23T08:25:15.321Z,27.55
2019-04-23T08:27:43.876Z,27.20
2019-04-23T08:30:20.908Z,30.08
2019-04-23T08:32:57.309Z,36.25
2019-04-23T08:35:35.886Z,26.77
2019-04-23T08:43:31.462Z,30.60
2019-04-23T08:45:55.008Z,21.07
2019-04-23T08:48:41.409Z,33.92
2019-04-23T08:50:57.772Z,17.25
2019-04-23T08:56:12.390Z,26.33
2019-04-23T08:58:31.994Z,19.60
2019-04-23T09:03:30.091Z,27.70
2019-04-23T09:08:48.422Z,23.80
2019-04-23T09:18:33.502Z,17.07
2019-04-23T09:21:05.835Z,19.77
2019-04-23T09:23:39.168Z,17.42
2019-04-23T09:26:02.520Z,17.67
2019-04-23T09:31:42.025Z,19.05
2019-04-23T09:33:58.669Z,17.77
2019-04-23T09:39:32.986Z,20.45
2019-04-23T09:42:11.314Z,24.60
2019-04-23T09:45:05.346Z,21.87
2019-04-23T09:47:55.204Z,24.07
2019-04-23T09:50:16.733Z,21.48
2019-04-23T09:52:59.094Z,19.50
2019-04-23T09:55:22.454Z,19.52
2019-04-23T09:57:49.458Z,25.68
2019-04-23T10:00:25.595Z,19.75
2019-04-23T10:02:41.266Z,26.02
2019-04-23T10:05:07.325Z,20.68
2019-04-23T10:07:38.203Z,22.50
2019-04-23T10:09:57.381Z,19.00
2019-04-23T10:12:28.026Z,24.12
2019-04-23T10:17:28.381Z,20.72
2019-04-23T10:19:58.303Z,21.97
2019-04-23T10:22:30.123Z,20.75
2019-04-23T10:24:59.460Z,20.88
2019-04-23T10:27:29.526Z,22.13
2019-04-23T10:30:01.627Z,21.07
2019-04-23T10:32:29.800Z,20.48
2019-04-23T10:35:11.906Z,19.40
2019-04-23T10:37:36.754Z,27.42
2019-04-23T10:40:03.506Z,22.80
2019-04-23T10:42:33.885Z,25.15
2019-04-23T10:45:14.758Z,20.85
2019-04-23T10:51:00.242Z,19.85
2019-04-23T10:53:30.060Z,24.25
2019-04-23T10:58:30.372Z,22.30
2019-04-23T11:06:06.835Z,18.10
2019-04-23T11:08:38.951Z,21.20
2019-04-23T11:11:07.906Z,19.15
2019-04-23T11:16:42.018Z,22.30
2019-04-23T11:21:20.730Z,19.70
2019-04-23T11:26:21.607Z,21.52
2019-04-23T11:28:42.934Z,19.77
2019-04-23T11:31:34.061Z,21.10
2019-04-23T11:33:59.164Z,17.40
2019-04-23T11:39:00.241Z,19.85
2019-04-23T11:41:32.424Z,20.27
2019-04-23T11:43:53.644Z,17.60
2019-04-23T11:49:26.635Z,19.40
2019-04-23T11:51:45.910Z,23.57
2019-04-23T11:54:01.562Z,19.42
2019-04-23T11:59:17.532Z,24.70
2019-04-23T12:06:59.715Z,21.52
2019-04-23T12:09:55.049Z,26.87
2019-04-23T12:12:28.491Z,22.70
2019-04-23T12:14:51.665Z,22.02
2019-04-23T12:20:06.240Z,20.65
2019-04-23T12:22:29.463Z,20.37
2019-04-23T12:27:31.385Z,20.05
2019-04-23T12:30:01.331Z,20.23
2019-04-23T12:35:16.806Z,26.12
2019-04-23T12:37:41.426Z,24.40
2019-04-23T12:40:23.090Z,23.12
2019-04-23T12:45:21.717Z,20.12
2019-04-23T12:53:34.784Z,22.20
2019-04-23T12:56:11.005Z,21.73
2019-04-23T13:01:13.992Z,22.85
2019-04-23T13:03:39.204Z,24.60
2019-04-23T13:06:11.458Z,23.62
2019-04-23T13:08:46.724Z,20.72
2019-04-23T13:11:17.604Z,23.57
2019-04-23T13:13:53.512Z,21.57
2019-04-23T13:18:47.039Z,19.25
2019-04-23T13:21:38.477Z,22.73
2019-04-23T13:23:47.485Z,21.00
2019-04-23T13:26:13.078Z,21.02
2019-04-23T13:29:15.748Z,23.32
2019-04-23T13:34:04.310Z,20.05
2019-04-23T13:36:32.304Z,18.73
2019-04-23T13:38:48.843Z,21.62
2019-04-23T13:41:20.354Z,24.27
2019-04-23T13:44:02.665Z,21.02
2019-04-23T13:46:27.869Z,23.00
2019-04-23T13:48:48.978Z,20.02
2019-04-23T13:53:53.477Z,27.15
2019-04-23T13:56:39.290Z,19.95
2019-04-23T14:01:30.861Z,22.05
2019-04-23T14:04:04.293Z,22.75
2019-04-23T14:06:37.297Z,21.48
2019-04-23T14:11:30.863Z,22.02
2019-04-23T14:16:48.752Z,18.82
2019-04-23T14:19:22.635Z,25.57
2019-04-23T14:21:44.575Z,21.82
2019-04-23T14:26:55.989Z,22.15
2019-04-23T14:29:26.520Z,19.05
2019-04-23T14:31:42.950Z,21.80
2019-04-23T14:36:55.535Z,21.70
2019-04-23T14:39:24.003Z,19.57
2019-04-23T14:41:54.124Z,23.83
2019-04-23T14:44:25.805Z,20.70
2019-04-23T14:47:09.093Z,24.63
2019-04-23T14:49:33.937Z,21.55
2019-04-23T14:52:09.171Z,29.05
2019-04-23T14:59:41.140Z,22.00
2019-04-23T15:02:12.505Z,23.67
2019-04-23T15:04:39.721Z,23.38
2019-04-23T15:07:16.957Z,22.90
2019-04-23T15:10:03.028Z,25.77
2019-04-23T15:12:22.577Z,22.85
2019-04-23T15:14:58.692Z,25.32
2019-04-23T15:17:34.415Z,26.68
2019-04-23T15:20:08.137Z,20.12
2019-04-23T15:22:39.653Z,21.02
2019-04-23T15:25:25.539Z,20.80
2019-04-23T15:32:43.898Z,21.60
2019-04-23T15:35:18.459Z,27.25
2019-04-23T15:40:08.173Z,23.05
2019-04-23T15:42:42.114Z,20.17
2019-04-23T15:47:39.181Z,23.50
2019-04-23T15:50:14.470Z,22.90
2019-04-23T15:52:44.146Z,23.77
2019-04-23T15:55:05.834Z,25.57
2019-04-23T16:00:07.211Z,20.27
2019-04-23T16:02:13.944Z,30.00
2019-04-23T16:04:44.053Z,17.05
2019-04-23T16:07:30.972Z,18.52
2019-04-23T16:10:17.635Z,28.90
2019-04-23T16:12:45.058Z,21.97
2019-04-23T16:15:15.226Z,21.00
2019-04-23T16:22:39.662Z,18.35
2019-04-23T16:27:48.988Z,20.52
2019-04-23T16:30:20.292Z,24.45
2019-04-23T16:33:02.427Z,16.05
2019-04-23T16:35:33.016Z,19.67
2019-04-23T16:38:21.574Z,25.20
2019-04-23T16:40:37.042Z,26.20
2019-04-23T16:43:08.680Z,21.27
2019-04-23T16:45:41.035Z,19.60
2019-04-23T16:50:57.830Z,21.20
2019-04-23T16:53:15.798Z,24.45
2019-04-23T17:00:51.605Z,19.02
2019-04-23T17:05:41.006Z,17.67
2019-04-23T17:10:42.941Z,21.30
2019-04-23T17:15:53.820Z,21.37
2019-04-23T17:18:17.233Z,22.65
2019-04-23T17:20:47.057Z,26.68
2019-04-23T17:25:51.870Z,28.30
2019-04-23T17:31:03.939Z,28.15
2019-04-23T17:33:27.610Z,30.27
2019-04-23T17:38:49.553Z,26.10
2019-04-23T17:41:23.824Z,28.90
2019-04-23T17:44:02.307Z,42.23
2019-04-23T17:46:27.364Z,34.20
2019-04-23T17:49:04.668Z,47.95
2019-04-23T17:51:25.987Z,44.13
2019-04-23T17:54:21.374Z,47.98
2019-04-23T17:56:50.854Z,39.98
2019-04-23T17:59:08.850Z,31.80
2019-04-23T18:01:59.239Z,31.90
2019-04-23T18:04:10.355Z,44.15
2019-04-23T18:06:41.152Z,41.48
2019-04-23T18:09:14.278Z,31.68
2019-04-23T18:11:37.647Z,39.00
2019-04-23T18:14:08.371Z,37.13
2019-04-23T18:19:12.739Z,36.15
2019-04-23T18:21:52.028Z,39.58
2019-04-23T18:27:05.371Z,46.08
2019-04-23T18:29:53.639Z,31.95
2019-04-23T18:33:01.354Z,37.78
2019-04-23T18:37:30.060Z,36.42
2019-04-23T18:40:14.126Z,52.38
2019-04-23T18:42:40.180Z,35.78
2019-04-23T18:45:10.477Z,39.88
2019-04-23T18:47:40.240Z,61.73
2019-04-23T18:50:02.218Z,46.92
2019-04-23T18:52:42.952Z,38.95
2019-04-23T18:55:08.368Z,44.98
2019-04-23T18:57:40.223Z,43.85
2019-04-23T19:00:05.678Z,39.20
2019-04-23T19:02:58.502Z,44.83
2019-04-23T19:05:28.346Z,45.12
2019-04-23T19:11:05.051Z,37.63
2019-04-23T19:15:59.790Z,29.92
2019-04-23T19:18:32.008Z,31.73
2019-04-23T19:21:08.000Z,33.08
2019-04-23T19:23:32.811Z,32.48
2019-04-23T19:25:49.856Z,43.02
2019-04-23T19:31:07.359Z,33.88
2019-04-23T19:33:47.890Z,37.30
2019-04-23T19:38:34.825Z,34.43
2019-04-23T19:41:34.717Z,31.57
2019-04-23T19:56:16.900Z,29.30
2019-04-23T19:58:54.359Z,32.70
2019-04-23T20:09:18.675Z,29.25
2019-04-23T20:13:50.667Z,32.95
2019-04-23T20:18:50.550Z,35.25
2019-04-23T20:21:08.688Z,27.80
2019-04-23T20:24:04.109Z,34.08
2019-04-23T20:26:17.326Z,32.93
2019-04-23T20:32:55.381Z,35.05
2019-04-23T20:34:24.462Z,38.98
2019-04-23T20:36:46.262Z,32.60
2019-04-23T20:39:17.018Z,34.65
2019-04-23T20:44:37.347Z,31.50
2019-04-23T20:47:11.491Z,39.65
2019-04-23T20:49:38.773Z,35.55
2019-04-23T20:57:31.557Z,29.52
2019-04-23T20:59:56.019Z,27.25
2019-04-23T21:02:41.986Z,35.78
2019-04-23T21:05:03.578Z,28.45
2019-04-23T21:07:41.397Z,39.03
2019-04-23T21:10:16.696Z,40.48
2019-04-23T21:12:58.200Z,32.88
2019-04-23T21:17:35.628Z,31.15
2019-04-23T21:20:10.561Z,31.23
2019-04-23T21:22:32.113Z,36.17
2019-04-23T21:25:01.806Z,32.95
2019-04-23T21:27:44.947Z,31.37
2019-04-23T21:30:03.024Z,30.92
2019-04-23T21:38:00.389Z,42.45
2019-04-23T21:43:10.499Z,45.00
2019-04-23T21:45:52.478Z,45.88
2019-04-23T21:50:50.356Z,44.03
2019-04-23T21:53:08.134Z,45.25
2019-04-23T21:55:54.297Z,45.50
2019-04-23T21:58:17.207Z,48.60
2019-04-23T22:00:53.091Z,39.15
2019-04-23T22:03:18.146Z,42.48
2019-04-23T22:05:51.361Z,46.23
2019-04-23T22:08:35.205Z,49.58
2019-04-23T22:10:58.738Z,49.53
2019-04-23T22:16:04.153Z,50.73
2019-04-23T22:18:21.980Z,68.65
2019-04-23T22:20:59.446Z,71.47
2019-04-23T22:23:22.033Z,77.97
2019-04-23T22:25:56.692Z,95.67
2019-04-23T22:28:30.967Z,100.50
2019-04-23T22:31:08.635Z,123.65
2019-04-23T22:33:24.966Z,137.55
2019-04-23T22:36:01.618Z,135.28
2019-04-23T22:40:58.231Z,156.97
2019-04-23T22:43:29.995Z,157.10
2019-04-23T22:48:43.402Z,152.93
2019-04-23T22:51:10.595Z,130.43
2019-04-23T22:53:37.830Z,111.75
2019-04-23T22:56:07.471Z,102.10
2019-04-23T22:58:42.629Z,76.25
2019-04-23T23:01:19.734Z,67.55
2019-04-23T23:03:42.238Z,66.02
2019-04-23T23:06:23.049Z,53.42
2019-04-23T23:08:56.005Z,65.78
2019-04-23T23:11:08.737Z,59.03
2019-04-23T23:16:14.528Z,50.65
2019-04-23T23:18:52.189Z,50.05
2019-04-23T23:23:46.103Z,54.55
2019-04-23T23:26:14.221Z,55.52
2019-04-23T23:28:44.664Z,57.67
2019-04-23T23:33:59.011Z,39.40
2019-04-23T23:36:25.021Z,40.48
2019-04-23T23:39:00.976Z,36.38
2019-04-23T23:41:28.638Z,39.75
2019-04-23T23:44:09.501Z,41.63
2019-04-23T23:46:27.777Z,39.05
2019-04-23T23:48:56.644Z,36.83
2019-04-23T23:51:30.891Z,39.83
2019-04-23T23:54:01.975Z,37.03
2019-04-23T23:56:19.359Z,36.88
2019-04-23T23:59:04.012Z,32.08
